KLKV/LKV METAR and TAF weather

Enter ICAO airport designator
Station Type Date Time Source
KLKV METAR 2019/06/18 04:53 UTC NOAA

KLKV 180453Z AUTO 33006KT 10SM CLR 14/06 A3017 RMK AO2 SLP184 T01390056


Station Type Date Time Source
KLKV Decoded METAR 2019/06/18 04:53 UTC NOAA

Lakeview, Lake County Airport, OR, United States (KLKV) 42-10N 120-24W
Jun 18, 2019 - 12:53 AM EDT / 2019.06.18 0453 UTC
Wind: from the NNW (330 degrees) at 7 MPH (6 KT):0
Visibility: 10 mile(s):0
Sky conditions: clear
Temperature: 57.0 F (13.9 C)
Dew Point: 42.1 F (5.6 C)
Relative Humidity: 57%
Pressure (altimeter): 30.17 in. Hg (1021 hPa)
ob: KLKV 180453Z AUTO 33006KT 10SM CLR 14/06 A3017 RMK AO2 SLP184 T01390056
cycle: 5

Station Type Date Time Source
KLKV TAF UTC NOAA

Error!

Example: see airport list